Time;durP1;ratioP1;P1;durP2;ratioP2;P2;SDS_P1;SDS_P2;PMS_P1;PMS_P2;Temp;Humidity;BMP_temperature;BMP_pressure;BME280_temperature;BME280_humidity;BME280_pressure;Samples;Min_cycle;Max_cycle;Signal;HPM_P1;HPM_P2
2022/01/20 00:01:42;;;;;;;4.83;3.70;;;;;;;3.35;100.00;98846.81;5095291;28;20289;-67
2022/01/20 00:04:16;;;;;;;4.80;4.30;;;;;;;3.31;100.00;98845.19;5094518;28;20259;-67
2022/01/20 00:20:28;;;;;;;5.43;4.10;;;;;;;3.27;100.00;98843.56;5094151;28;20267;-67
2022/01/20 00:26:27;;;;;;;4.83;3.90;;;;;;;3.23;100.00;98840.19;5090616;28;20564;-66
2022/01/20 00:28:58;;;;;;;5.97;3.83;;;;;;;3.28;100.00;98845.28;5089054;28;20214;-66
2022/01/20 00:31:34;;;;;;;5.00;4.00;;;;;;;3.29;100.00;98846.97;5079352;28;20258;-65
2022/01/20 00:34:12;;;;;;;4.80;4.10;;;;;;;3.29;100.00;98846.97;5088840;28;20210;-65
2022/01/20 00:39:23;;;;;;;6.13;4.37;;;;;;;3.26;100.00;98847.97;5079945;28;20220;-65
2022/01/20 00:41:51;;;;;;;5.20;4.50;;;;;;;3.18;100.00;98844.69;5090327;28;20221;-65
2022/01/20 00:44:18;;;;;;;5.40;4.57;;;;;;;3.19;100.00;98854.22;5090242;28;20261;-65
2022/01/20 00:46:46;;;;;;;4.50;3.80;;;;;;;3.11;100.00;98858.81;5090116;28;20237;-66
2022/01/20 00:49:12;;;;;;;4.40;3.80;;;;;;;3.03;100.00;98860.81;5090202;28;20264;-66
2022/01/20 00:51:39;;;;;;;5.20;4.37;;;;;;;3.02;100.00;98860.84;5089908;28;20222;-66
2022/01/20 00:54:05;;;;;;;4.87;3.97;;;;;;;3.08;100.00;98866.75;5089805;28;20672;-66
2022/01/20 00:56:32;;;;;;;4.47;3.37;;;;;;;3.06;100.00;98865.94;5090103;28;20218;-66
2022/01/20 00:59:00;;;;;;;3.63;3.20;;;;;;;3.07;100.00;98867.63;5088751;28;20211;-66
2022/01/20 01:01:26;;;;;;;3.63;3.23;;;;;;;3.10;100.00;98877.13;5089975;28;20215;-65
2022/01/20 01:03:53;;;;;;;4.07;3.53;;;;;;;3.11;100.00;98879.72;5090007;28;20210;-65
2022/01/20 01:06:33;;;;;;;4.67;3.50;;;;;;;3.09;100.00;98876.31;5089990;28;20235;-65
2022/01/20 01:09:00;;;;;;;3.73;3.20;;;;;;;3.08;100.00;98884.16;5080167;28;20222;-65
2022/01/20 01:11:26;;;;;;;4.30;3.63;;;;;;;3.12;100.00;98876.19;5089771;28;20217;-65
2022/01/20 01:13:55;;;;;;;4.40;3.30;;;;;;;3.08;100.00;98884.16;5089417;28;20712;-65
2022/01/20 01:16:34;;;;;;;4.50;3.37;;;;;;;3.08;100.00;98884.16;5089524;28;20559;-65
2022/01/20 01:21:52;;;;;;;4.83;3.43;;;;;;;3.18;100.00;98890.88;5089451;28;20268;-65
2022/01/20 01:24:18;;;;;;;4.37;3.30;;;;;;;3.10;100.00;98898.03;5088956;28;20704;-65
2022/01/20 01:26:45;;;;;;;4.40;3.60;;;;;;;3.16;100.00;98883.06;5087858;28;20226;-65
2022/01/20 01:29:27;;;;;;;3.60;3.03;;;;;;;3.15;100.00;98886.56;5089232;28;20716;-65
2022/01/20 01:31:55;;;;;;;3.50;3.07;;;;;;;3.16;100.00;98883.06;5088218;28;20214;-66
2022/01/20 01:34:23;;;;;;;3.70;2.90;;;;;;;3.13;100.00;98888.34;5078220;28;20282;-66
2022/01/20 01:37:03;;;;;;;3.40;2.87;;;;;;;3.06;100.00;98884.19;5080917;28;20565;-65
2022/01/20 01:39:30;;;;;;;2.50;2.27;;;;;;;3.10;100.00;98883.22;5075460;28;20211;-65
2022/01/20 01:41:58;;;;;;;3.20;2.50;;;;;;;3.14;100.00;98879.66;5075542;28;20217;-65
2022/01/20 01:44:27;;;;;;;3.70;2.80;;;;;;;3.18;100.00;98885.63;5075461;28;20220;-65
2022/01/20 01:46:56;;;;;;;3.47;2.50;;;;;;;3.20;100.00;98874.25;5075450;28;20212;-65
2022/01/20 01:49:23;;;;;;;4.00;2.70;;;;;;;3.25;100.00;98876.72;5075537;28;20249;-65
2022/01/20 01:51:50;;;;;;;3.83;2.80;;;;;;;3.28;100.00;98877.50;5073656;28;20238;-65
2022/01/20 01:54:18;;;;;;;3.20;2.50;;;;;;;3.30;100.00;98880.91;5075492;28;20589;-66
2022/01/20 01:56:47;;;;;;;3.30;2.93;;;;;;;3.35;100.00;98879.03;5075460;28;20218;-66
2022/01/20 01:59:13;;;;;;;3.27;2.97;;;;;;;3.36;100.00;98882.50;5074759;28;20211;-66
2022/01/20 02:01:41;;;;;;;2.90;2.67;;;;;;;3.35;100.00;98871.19;5075200;28;20214;-66
2022/01/20 02:04:14;;;;;;;3.37;2.80;;;;;;;3.35;100.00;98873.78;5075205;28;20280;-66
2022/01/20 02:07:11;;;;;;;3.50;2.80;;;;;;;3.37;100.00;98885.06;5071051;28;20605;-66
2022/01/20 02:17:49;;;;;;;3.07;2.50;;;;;;;3.37;100.00;98876.38;5074362;28;20265;-66
2022/01/20 02:18:23;;;;;;;3.10;2.57;;;;;;;3.28;100.00;98869.66;5073163;28;20234;-66
2022/01/20 02:20:51;;;;;;;2.90;2.27;;;;;;;3.25;100.00;98855.81;5074965;28;20566;-66
2022/01/20 02:23:18;;;;;;;2.67;2.40;;;;;;;3.27;100.00;98854.88;5074710;28;20211;-66
2022/01/20 02:25:45;;;;;;;3.20;2.70;;;;;;;3.26;100.00;98853.19;5074947;28;20260;-66
2022/01/20 02:28:13;;;;;;;2.83;2.10;;;;;;;3.21;100.00;98847.22;5074671;28;20207;-66
2022/01/20 02:30:42;;;;;;;3.33;2.50;;;;;;;3.24;100.00;98844.50;5074857;28;20218;-66
2022/01/20 02:33:12;;;;;;;2.70;2.40;;;;;;;3.27;100.00;98848.78;5074751;28;20211;-66
2022/01/20 02:35:43;;;;;;;2.87;2.10;;;;;;;3.28;100.00;98861.81;5074837;28;20222;-66
2022/01/20 02:38:16;;;;;;;2.97;1.80;;;;;;;3.33;100.00;98859.06;5074279;28;20217;-66
2022/01/20 02:46:11;;;;;;;1.83;1.70;;;;;;;3.31;100.00;98861.72;5074207;28;20648;-66
2022/01/20 02:48:38;;;;;;;2.20;1.97;;;;;;;3.33;100.00;98849.47;5073159;28;20701;-66
2022/01/20 02:51:05;;;;;;;2.30;2.10;;;;;;;3.30;100.00;98849.56;5074109;28;20221;-66
2022/01/20 02:53:32;;;;;;;2.30;2.10;;;;;;;3.27;100.00;98870.56;5074402;28;20208;-66
2022/01/20 02:55:59;;;;;;;2.30;2.10;;;;;;;3.24;100.00;98870.63;5074022;28;20215;-66
2022/01/20 02:58:25;;;;;;;2.20;2.00;;;;;;;3.26;100.00;98868.84;5074027;28;20215;-66
2022/01/20 03:00:53;;;;;;;2.60;2.40;;;;;;;3.32;100.00;98862.59;5074158;28;20216;-66
2022/01/20 03:03:20;;;;;;;2.60;2.20;;;;;;;3.25;100.00;98864.50;5073870;28;20699;-66
2022/01/20 03:05:46;;;;;;;2.60;2.40;;;;;;;3.32;100.00;98862.59;5074046;28;20235;-66
2022/01/20 03:08:14;;;;;;;3.03;2.73;;;;;;;3.28;100.00;98867.03;5074335;28;20215;-66
2022/01/20 03:10:42;;;;;;;2.90;2.70;;;;;;;3.34;100.00;98869.47;5072200;28;20211;-66
2022/01/20 03:13:09;;;;;;;3.20;2.90;;;;;;;3.35;100.00;98867.69;5073940;28;20219;-66
2022/01/20 03:15:35;;;;;;;3.10;2.80;;;;;;;3.34;100.00;98871.22;5073586;28;20221;-66
2022/01/20 03:18:03;;;;;;;4.20;3.17;;;;;;;3.30;100.00;98873.06;5073696;28;20299;-66
2022/01/20 03:20:32;;;;;;;3.67;3.30;;;;;;;3.27;100.00;98875.78;5073765;28;20212;-66
2022/01/20 03:22:58;;;;;;;3.23;2.80;;;;;;;3.26;100.00;98873.22;5073773;28;20219;-66
2022/01/20 03:25:25;;;;;;;3.20;2.90;;;;;;;3.26;100.00;98881.03;5073139;28;20235;-66
2022/01/20 03:27:52;;;;;;;3.40;3.10;;;;;;;3.22;100.00;98871.56;5073640;28;20215;-66
2022/01/20 03:30:19;;;;;;;4.00;3.17;;;;;;;3.20;100.00;98874.25;5073623;28;20216;-66
2022/01/20 03:32:46;;;;;;;3.57;3.03;;;;;;;3.26;100.00;98868.84;5073586;28;20215;-66
2022/01/20 03:35:13;;;;;;;3.10;2.80;;;;;;;3.26;100.00;98878.44;5072378;28;20226;-66
2022/01/20 03:37:40;;;;;;;3.20;2.90;;;;;;;3.23;100.00;98863.69;5070929;28;20738;-67
2022/01/20 03:40:09;;;;;;;3.77;2.90;;;;;;;3.24;100.00;98868.00;5073399;28;20616;-68
2022/01/20 03:42:36;;;;;;;3.13;2.83;;;;;;;3.27;100.00;98865.34;5073378;28;20217;-66
2022/01/20 03:45:05;;;;;;;3.10;2.60;;;;;;;3.29;100.00;98863.53;5073198;28;20220;-67
2022/01/20 03:47:32;;;;;;;3.73;3.13;;;;;;;3.34;100.00;98866.88;5071445;28;20216;-67
2022/01/20 03:50:09;;;;;;;3.37;2.87;;;;;;;3.31;100.00;98861.72;5073329;28;20212;-67
2022/01/20 03:52:36;;;;;;;4.10;2.97;;;;;;;3.20;100.00;98858.56;5073120;28;20215;-67
2022/01/20 03:55:03;;;;;;;4.20;3.43;;;;;;;3.08;100.00;98861.53;5073255;28;20238;-67
2022/01/20 03:57:30;;;;;;;3.60;3.30;;;;;;;3.07;100.00;98858.97;5073211;28;20302;-66
2022/01/20 03:59:56;;;;;;;3.63;3.33;;;;;;;3.04;100.00;98859.91;5073002;28;20212;-67
2022/01/20 04:02:24;;;;;;;4.30;3.80;;;;;;;3.03;100.00;98858.19;5071593;28;20219;-66
2022/01/20 04:04:50;;;;;;;4.27;3.20;;;;;;;2.89;100.00;98860.31;5073188;28;20215;-66
2022/01/20 04:07:17;;;;;;;4.33;3.93;;;;;;;2.86;100.00;98865.63;5073054;28;20249;-67
2022/01/20 04:09:44;;;;;;;4.10;3.70;;;;;;;2.88;100.00;98865.59;5072896;28;20690;-66
2022/01/20 04:12:10;;;;;;;4.23;3.77;;;;;;;2.83;100.00;98873.56;5073063;28;20222;-67
2022/01/20 04:14:45;;;;;;;4.13;3.73;;;;;;;2.81;100.00;98871.88;5073306;28;20580;-66
2022/01/20 04:17:17;;;;;;;3.67;3.37;;;;;;;2.89;100.00;98870.75;5072948;28;20219;-67
2022/01/20 04:19:45;;;;;;;4.33;3.93;;;;;;;2.90;100.00;98864.66;5072771;28;20223;-67
2022/01/20 04:22:12;;;;;;;4.50;3.50;;;;;;;2.92;100.00;98862.84;5073009;28;20234;-67
2022/01/20 04:24:38;;;;;;;5.03;4.30;;;;;;;3.00;100.00;98866.09;5072794;28;20247;-67
2022/01/20 04:27:05;;;;;;;3.80;3.40;;;;;;;3.08;100.00;98868.50;5072316;28;20246;-67
2022/01/20 04:29:34;;;;;;;4.50;4.10;;;;;;;3.12;100.00;98865.75;5072055;28;20226;-67
2022/01/20 04:32:00;;;;;;;5.50;4.10;;;;;;;3.10;100.00;98866.69;5072908;28;20219;-67
2022/01/20 04:34:27;;;;;;;5.47;3.90;;;;;;;3.07;100.00;98872.84;5072884;28;20212;-66
2022/01/20 04:36:55;;;;;;;4.53;4.13;;;;;;;3.11;100.00;98866.66;5070138;28;20216;-67
2022/01/20 04:39:25;;;;;;;4.17;3.73;;;;;;;3.14;100.00;98863.97;5072871;28;20238;-67
2022/01/20 04:41:53;;;;;;;5.43;4.27;;;;;;;3.17;100.00;98874.31;5072803;28;20294;-67
2022/01/20 04:44:32;;;;;;;4.80;4.20;;;;;;;3.17;100.00;98873.47;5072413;28;20215;-66
2022/01/20 04:47:07;;;;;;;4.27;3.87;;;;;;;3.23;100.00;98876.75;5072540;28;20277;-67
2022/01/20 04:57:47;;;;;;;6.37;4.03;;;;;;;3.16;100.00;98872.63;5072484;28;20226;-64
2022/01/20 05:00:14;;;;;;;4.47;3.90;;;;;;;3.07;100.00;98878.06;5072063;28;20669;-65
2022/01/20 05:02:41;;;;;;;4.63;3.87;;;;;;;3.03;100.00;98871.25;5072105;28;20222;-65
2022/01/20 05:05:09;;;;;;;5.13;4.00;;;;;;;2.93;100.00;98880.22;5072209;28;20677;-64
2022/01/20 05:07:37;;;;;;;4.40;3.80;;;;;;;2.88;100.00;98869.03;5072210;28;20244;-64
2022/01/20 05:10:06;;;;;;;4.17;3.77;;;;;;;2.90;100.00;98869.88;5072448;28;20280;-64
2022/01/20 05:12:49;;;;;;;4.07;3.33;;;;;;;2.84;100.00;98870.03;5074874;28;20212;-64
2022/01/20 05:15:15;;;;;;;4.43;3.77;;;;;;;2.81;100.00;98874.50;5076256;28;20211;-64
2022/01/20 05:17:42;;;;;;;5.87;4.27;;;;;;;2.79;100.00;98869.31;5075858;28;20673;-64
2022/01/20 05:20:10;;;;;;;4.30;3.70;;;;;;;2.84;100.00;98864.81;5074401;28;20570;-65
2022/01/20 05:22:38;;;;;;;4.70;3.40;;;;;;;2.89;100.00;98867.28;5075939;28;20770;-64
2022/01/20 05:25:05;;;;;;;6.23;3.63;;;;;;;2.91;100.00;98882.03;5076085;28;20246;-64
2022/01/20 05:27:32;;;;;;;5.30;3.87;;;;;;;2.90;100.00;98875.09;5075942;28;20246;-64
2022/01/20 05:29:59;;;;;;;5.67;4.40;;;;;;;2.77;100.00;98868.50;5075774;28;20219;-65
2022/01/20 05:32:26;;;;;;;7.20;4.00;;;;;;;2.68;100.00;98868.72;5076015;28;20212;-64
2022/01/20 05:34:53;;;;;;;5.37;3.93;;;;;;;2.64;100.00;98861.84;5075896;28;20211;-64
2022/01/20 05:37:20;;;;;;;6.03;4.47;;;;;;;2.70;100.00;98873.91;5075396;28;20293;-65
2022/01/20 05:39:47;;;;;;;3.93;3.53;;;;;;;2.81;100.00;98880.53;5075413;28;20208;-64
2022/01/20 05:42:14;;;;;;;5.53;4.13;;;;;;;2.77;100.00;98878.94;5075413;28;20219;-65
2022/01/20 05:44:41;;;;;;;7.23;3.73;;;;;;;2.83;100.00;98884.00;5075648;28;20216;-64
2022/01/20 05:47:11;;;;;;;6.60;4.03;;;;;;;2.73;100.00;98900.78;5073842;28;20239;-65
2022/01/20 05:49:38;;;;;;;6.07;4.53;;;;;;;2.64;100.00;98895.78;5075602;28;20255;-65
2022/01/20 05:52:05;;;;;;;5.30;4.07;;;;;;;2.74;100.00;98888.56;5075444;28;20211;-65
2022/01/20 05:54:31;;;;;;;5.63;4.27;;;;;;;2.76;100.00;98887.63;5075684;28;20211;-65
2022/01/20 05:56:59;;;;;;;4.90;4.10;;;;;;;2.78;100.00;98898.91;5075233;28;20219;-65
2022/01/20 05:59:25;;;;;;;5.27;3.80;;;;;;;2.72;100.00;98901.69;5075273;28;20578;-65
2022/01/20 06:01:56;;;;;;;5.70;4.10;;;;;;;2.70;100.00;98898.25;5075198;28;20696;-65
2022/01/20 06:04:22;;;;;;;6.67;4.43;;;;;;;2.67;100.00;98894.84;5075384;28;20628;-65
2022/01/20 06:06:49;;;;;;;6.47;4.47;;;;;;;2.63;100.00;98888.03;5075126;28;20245;-65
2022/01/20 06:09:15;;;;;;;6.30;4.10;;;;;;;2.71;100.00;98889.53;5075120;28;20218;-65
2022/01/20 06:11:42;;;;;;;5.23;4.33;;;;;;;2.82;100.00;98897.91;5073418;28;20585;-65
2022/01/20 06:14:10;;;;;;;6.20;4.17;;;;;;;2.77;100.00;98897.22;5075304;28;20215;-65
2022/01/20 06:16:37;;;;;;;8.57;4.60;;;;;;;2.78;100.00;98887.59;5075155;28;20224;-65
2022/01/20 06:19:03;;;;;;;5.23;4.27;;;;;;;2.79;100.00;98882.34;5074769;28;20223;-65
2022/01/20 06:21:30;;;;;;;8.57;4.93;;;;;;;2.83;100.00;98881.38;5075013;28;20222;-65
2022/01/20 06:23:56;;;;;;;5.97;4.40;;;;;;;2.88;100.00;98886.47;5074392;28;20704;-65
2022/01/20 06:26:23;;;;;;;7.30;4.90;;;;;;;2.89;100.00;98878.56;5074834;28;20246;-65
2022/01/20 06:28:49;;;;;;;5.47;4.30;;;;;;;2.94;100.00;98891.53;5074700;28;20605;-65
2022/01/20 06:31:17;;;;;;;7.13;4.67;;;;;;;2.95;100.00;98883.63;5074591;28;20222;-65
2022/01/20 06:33:44;;;;;;;6.93;5.13;;;;;;;2.99;100.00;98890.50;5074878;28;20218;-65
2022/01/20 06:36:10;;;;;;;8.10;5.27;;;;;;;2.95;100.00;98894.06;5074672;28;20222;-66
2022/01/20 06:38:37;;;;;;;8.37;5.67;;;;;;;2.87;100.00;98890.81;5072862;28;20223;-66
2022/01/20 06:41:03;;;;;;;9.93;5.40;;;;;;;2.72;100.00;98872.97;5074586;28;20219;-66
2022/01/20 06:43:30;;;;;;;9.43;5.57;;;;;;;2.59;100.00;98874.19;5074542;28;20223;-66
2022/01/20 06:45:56;;;;;;;10.03;6.07;;;;;;;2.43;100.00;98875.47;5074580;28;20423;-66
2022/01/20 06:48:24;;;;;;;9.47;6.13;;;;;;;2.38;100.00;98874.72;5074232;28;20665;-66
2022/01/20 06:50:50;;;;;;;9.03;6.07;;;;;;;2.35;100.00;98879.16;5074151;28;20731;-66
2022/01/20 06:53:17;;;;;;;9.30;6.13;;;;;;;2.28;100.00;98888.03;5074381;28;20223;-66
2022/01/20 06:55:44;;;;;;;10.53;6.03;;;;;;;2.28;100.00;98891.50;5074291;28;20212;-66
2022/01/20 06:58:10;;;;;;;8.90;5.40;;;;;;;2.21;100.00;98897.75;5074206;28;20222;-66
2022/01/20 07:00:36;;;;;;;9.87;5.87;;;;;;;2.08;100.00;98885.91;5074152;28;20215;-66
2022/01/20 07:03:03;;;;;;;9.57;6.37;;;;;;;1.98;100.00;98876.59;5073500;28;20211;-66
2022/01/20 07:05:31;;;;;;;9.53;5.80;;;;;;;1.88;100.00;98888.13;5072676;28;20215;-66
2022/01/20 07:07:57;;;;;;;12.90;6.43;;;;;;;1.86;100.00;98889.91;5073677;28;20238;-66
2022/01/20 07:10:24;;;;;;;10.17;5.93;;;;;;;1.80;100.00;98882.25;5074062;28;20211;-66
2022/01/20 07:12:51;;;;;;;8.80;6.10;;;;;;;1.79;100.00;98893.53;5074085;28;20211;-66
2022/01/20 07:15:18;;;;;;;10.50;5.80;;;;;;;1.71;100.00;98902.44;5074060;28;20221;-66
2022/01/20 07:17:45;;;;;;;8.10;5.73;;;;;;;1.69;100.00;98899.84;5073856;28;20584;-66
2022/01/20 07:20:14;;;;;;;9.77;5.90;;;;;;;1.64;100.00;98893.88;5073706;28;20222;-66
2022/01/20 07:22:42;;;;;;;10.23;5.97;;;;;;;1.64;100.00;98901.69;5073472;28;20208;-66
2022/01/20 07:25:09;;;;;;;9.50;5.43;;;;;;;1.62;100.00;98900.03;5073475;28;20239;-66
2022/01/20 07:27:36;;;;;;;11.37;5.30;;;;;;;1.54;100.00;98915.81;5073478;28;20250;-66
2022/01/20 07:30:03;;;;;;;8.93;6.10;;;;;;;1.60;100.00;98933.91;5071906;28;20207;-66
2022/01/20 07:32:30;;;;;;;9.33;5.57;;;;;;;1.76;100.00;98945.72;5073655;28;20215;-66
2022/01/20 07:34:56;;;;;;;7.83;5.70;;;;;;;1.76;100.00;98943.13;5072986;28;20219;-66
2022/01/20 07:37:23;;;;;;;10.47;5.53;;;;;;;1.77;100.00;98950.06;5073455;28;20214;-66
2022/01/20 07:39:52;;;;;;;7.70;5.07;;;;;;;1.76;100.00;98955.28;5073337;28;20226;-66
2022/01/20 07:42:18;;;;;;;7.10;4.80;;;;;;;1.73;100.00;98961.41;5073277;28;20222;-66
2022/01/20 07:44:45;;;;;;;8.00;5.00;;;;;;;1.70;100.00;98958.03;5073449;28;20211;-66
2022/01/20 07:47:11;;;;;;;8.43;4.50;;;;;;;1.69;100.00;98954.56;5073077;28;20716;-66
2022/01/20 07:49:38;;;;;;;10.20;5.13;;;;;;;1.68;100.00;98960.69;5073282;28;20218;-66
2022/01/20 07:52:05;;;;;;;7.80;4.23;;;;;;;1.75;100.00;98964.88;5073384;28;20227;-66
2022/01/20 07:54:31;;;;;;;11.13;4.97;;;;;;;1.72;100.00;98964.06;5073186;28;20207;-66
2022/01/20 07:56:59;;;;;;;7.70;4.90;;;;;;;1.72;100.00;98967.53;5071660;28;20207;-66
2022/01/20 07:59:26;;;;;;;7.00;4.23;;;;;;;1.72;100.00;98964.91;5073197;28;20219;-66
2022/01/20 08:01:52;;;;;;;8.73;4.80;;;;;;;1.74;100.00;98977.91;5072922;28;20215;-66
2022/01/20 08:04:19;;;;;;;8.37;4.80;;;;;;;1.69;100.00;98974.53;5073087;28;20222;-66
2022/01/20 08:06:45;;;;;;;12.47;4.77;;;;;;;1.69;100.00;98970.22;5072804;28;20239;-66
2022/01/20 08:09:12;;;;;;;8.27;4.67;;;;;;;1.80;100.00;98962.16;5073092;28;20585;-66
2022/01/20 08:11:38;;;;;;;11.70;5.50;;;;;;;1.95;100.00;98967.03;5073069;28;20230;-66
2022/01/20 08:14:06;;;;;;;8.87;4.90;;;;;;;2.09;100.00;98973.66;5072862;28;20218;-67
2022/01/20 08:16:33;;;;;;;9.53;5.83;;;;;;;2.24;100.00;98970.72;5072734;28;20234;-66
2022/01/20 08:18:59;;;;;;;10.40;5.33;;;;;;;2.40;100.00;98969.44;5072542;28;20299;-66
2022/01/20 08:21:26;;;;;;;8.57;4.80;;;;;;;2.53;100.00;98973.50;5059530;28;20223;-67
2022/01/20 08:23:52;;;;;;;10.47;5.00;;;;;;;2.61;100.00;98968.94;5072891;28;20222;-66
2022/01/20 08:26:19;;;;;;;7.53;4.60;;;;;;;2.66;100.00;98969.69;5070172;28;20238;-66
2022/01/20 08:28:45;;;;;;;8.57;4.67;;;;;;;2.72;100.00;98966.94;5070020;28;20216;-67
2022/01/20 08:31:14;;;;;;;12.27;5.10;;;;;;;2.77;100.00;98966.81;5070821;28;20226;-66
2022/01/20 08:33:40;;;;;;;9.23;4.47;;;;;;;2.77;100.00;98967.69;5071578;28;20231;-67
2022/01/20 08:36:06;;;;;;;7.00;4.30;;;;;;;2.86;100.00;98977.88;5071626;28;20222;-67
2022/01/20 08:38:33;;;;;;;7.77;4.50;;;;;;;2.89;100.00;98988.22;5071463;28;20215;-67
2022/01/20 08:41:00;;;;;;;9.50;4.67;;;;;;;3.01;100.00;98992.31;5071012;28;20226;-67
2022/01/20 08:43:26;;;;;;;9.30;4.73;;;;;;;3.07;100.00;98995.59;5068906;28;20215;-67
2022/01/20 08:45:53;;;;;;;7.67;3.93;;;;;;;3.06;100.00;98996.50;5068868;28;20226;-67
2022/01/20 08:48:21;;;;;;;8.33;4.40;;;;;;;3.10;100.00;99011.19;5072855;28;20235;-67
2022/01/20 08:50:47;;;;;;;9.37;4.80;;;;;;;3.16;100.00;99005.81;5066004;28;20215;-67
2022/01/20 08:53:14;;;;;;;9.13;4.67;;;;;;;3.25;100.00;99013.41;5075258;28;20219;-67
2022/01/20 08:55:40;;;;;;;8.17;4.47;;;;;;;3.27;100.00;99015.97;5075075;28;20258;-67
2022/01/20 08:58:07;;;;;;;9.20;4.70;;;;;;;3.29;100.00;99017.66;5075121;28;20217;-67
2022/01/20 09:00:35;;;;;;;10.63;4.57;;;;;;;3.29;100.00;99025.50;5075243;28;20260;-67
2022/01/20 09:03:03;;;;;;;7.67;3.93;;;;;;;3.37;100.00;99028.75;5075299;28;20211;-67
2022/01/20 09:05:31;;;;;;;6.87;3.70;;;;;;;3.34;100.00;99035.81;5075334;28;20595;-67
2022/01/20 09:07:58;;;;;;;10.57;4.00;;;;;;;3.33;100.00;99036.72;5075135;28;20231;-67
2022/01/20 09:10:24;;;;;;;7.33;3.93;;;;;;;3.36;100.00;99042.72;5075104;28;20215;-67
2022/01/20 09:15:38;;;;;;;11.43;4.87;;;;;;;3.38;100.00;99035.72;5073184;28;20216;-67
2022/01/20 09:18:08;;;;;;;8.03;4.20;;;;;;;3.73;100.00;99030.38;5074620;28;20673;-67
2022/01/20 09:20:38;;;;;;;5.03;3.80;;;;;;;3.95;100.00;99033.22;5074885;28;20215;-67
2022/01/20 09:23:05;;;;;;;6.90;4.27;;;;;;;3.96;100.00;99017.50;5074493;28;20220;-67
2022/01/20 09:25:32;;;;;;;11.13;4.37;;;;;;;3.87;100.00;99022.16;5074294;28;20251;-67
2022/01/20 09:28:00;;;;;;;7.33;4.07;;;;;;;3.82;100.00;99029.25;5074530;28;20243;-67
2022/01/20 09:30:28;;;;;;;7.57;3.60;;;;;;;3.88;100.00;99022.09;5074974;28;20221;-67
2022/01/20 09:33:09;;;;;;;8.03;4.50;;;;;;;4.04;100.00;99035.59;5074662;28;20336;-67
2022/01/20 09:35:38;;;;;;;7.67;3.73;;;;;;;4.10;100.00;99033.63;5070134;28;20294;-67
2022/01/20 09:38:05;;;;;;;7.90;4.30;;;;;;;4.13;100.00;99033.56;5074413;28;20215;-67
2022/01/20 09:40:34;;;;;;;7.17;4.17;;;;;;;4.15;100.00;99030.91;5074625;28;20223;-67
2022/01/20 09:43:01;;;;;;;6.47;4.00;;;;;;;4.19;100.00;99037.75;5072935;28;20322;-67
2022/01/20 09:45:28;;;;;;;10.13;4.20;;;;;;;4.35;100.00;99018.91;5074637;28;20222;-67
2022/01/20 09:47:55;;;;;;;9.47;4.40;;;;;;;4.43;100.00;99022.19;5074357;28;20235;-67
2022/01/20 09:50:23;;;;;;;10.10;4.93;;;;;;;4.51;100.00;99022.78;5074082;28;20298;-67
2022/01/20 09:52:52;;;;;;;11.87;4.00;;;;;;;4.56;100.00;99017.41;5074223;28;20212;-67
2022/01/20 09:55:20;;;;;;;10.97;4.20;;;;;;;4.48;100.00;99020.28;5073555;28;20246;-68
2022/01/20 09:57:46;;;;;;;13.67;4.60;;;;;;;4.41;100.00;99023.97;5064098;28;20211;-67
2022/01/20 10:00:16;;;;;;;10.00;4.67;;;;;;;4.39;100.00;99025.78;5073984;28;20208;-67
2022/01/20 10:02:55;;;;;;;9.73;4.00;;;;;;;4.37;100.00;99035.47;5074097;28;20288;-67
2022/01/20 10:05:27;;;;;;;12.90;4.40;;;;;;;4.31;100.00;99042.63;5073429;28;20638;-68
2022/01/20 10:08:00;;;;;;;11.13;4.63;;;;;;;4.35;100.00;99055.56;5063513;28;20250;-67
2022/01/20 10:10:37;;;;;;;11.27;4.50;;;;;;;4.45;100.00;99050.94;5072721;28;20234;-67
2022/01/20 10:13:05;;;;;;;12.17;5.00;;;;;;;4.45;100.00;99051.78;5071454;28;20684;-68
2022/01/20 10:15:31;;;;;;;8.90;4.27;;;;;;;4.48;100.00;99046.47;5073573;28;20216;-68
2022/01/20 10:18:05;;;;;;;10.27;4.50;;;;;;;4.40;100.00;99042.38;5073747;28;20595;-68
2022/01/20 10:20:31;;;;;;;11.10;4.50;;;;;;;4.38;100.00;99055.47;5073794;28;20216;-68
2022/01/20 10:22:59;;;;;;;7.87;4.07;;;;;;;4.44;100.00;99047.44;5073724;28;20216;-68
2022/01/20 10:25:26;;;;;;;11.57;4.23;;;;;;;4.43;100.00;99053.59;5073651;28;20627;-67
2022/01/20 10:27:54;;;;;;;12.70;4.77;;;;;;;4.40;100.00;99043.19;5073803;28;20240;-67
2022/01/20 10:30:23;;;;;;;10.03;4.63;;;;;;;4.41;100.00;99060.63;5073332;28;20254;-67
2022/01/20 10:32:52;;;;;;;8.87;5.27;;;;;;;4.53;100.00;99059.41;5073554;28;20211;-68
2022/01/20 10:35:24;;;;;;;9.63;4.47;;;;;;;4.57;100.00;99048.78;5071652;28;20585;-68
2022/01/20 10:38:00;;;;;;;8.13;4.00;;;;;;;4.59;100.00;99039.09;5073592;28;20216;-68
2022/01/20 10:40:28;;;;;;;10.27;4.30;;;;;;;4.62;100.00;99032.94;5073303;28;20463;-68
2022/01/20 10:42:55;;;;;;;9.57;4.53;;;;;;;4.62;100.00;99031.19;5073155;28;20225;-67
2022/01/20 10:45:23;;;;;;;10.13;5.40;;;;;;;4.68;100.00;99028.38;5073288;28;20220;-68
2022/01/20 10:47:51;;;;;;;8.90;4.60;;;;;;;4.73;100.00;99016.00;5072907;28;20235;-68
2022/01/20 10:50:22;;;;;;;9.93;5.30;;;;;;;4.83;100.00;99022.63;5069944;28;20217;-68
2022/01/20 10:52:50;;;;;;;7.70;4.43;;;;;;;4.90;100.00;99024.13;5073226;28;20215;-68
2022/01/20 10:55:22;;;;;;;6.73;4.50;;;;;;;4.93;100.00;99018.81;5073205;28;20226;-68
2022/01/20 10:57:52;;;;;;;7.90;4.30;;;;;;;4.95;100.00;99027.47;5073057;28;20291;-67
2022/01/20 11:00:20;;;;;;;7.93;4.47;;;;;;;4.92;100.00;99030.19;5072720;28;20208;-67
2022/01/20 11:02:51;;;;;;;7.77;4.63;;;;;;;4.82;99.84;99023.53;5071158;28;20212;-68
2022/01/20 11:05:18;;;;;;;11.57;4.63;;;;;;;4.80;99.40;99020.13;5062497;28;20239;-68
2022/01/20 11:07:45;;;;;;;7.37;4.97;;;;;;;4.76;100.00;99015.03;5070487;28;20310;-68
2022/01/20 11:10:12;;;;;;;8.13;4.53;;;;;;;4.80;100.00;99008.78;5071920;28;20218;-68
2022/01/20 11:12:39;;;;;;;8.83;4.53;;;;;;;4.71;100.00;99007.31;5072733;28;20208;-67
2022/01/20 11:15:10;;;;;;;7.43;4.50;;;;;;;4.65;100.00;99007.50;5072837;28;20215;-68
2022/01/20 11:17:40;;;;;;;8.50;4.93;;;;;;;4.65;100.00;98999.66;5072672;28;20224;-68
2022/01/20 11:20:09;;;;;;;10.97;5.10;;;;;;;4.63;100.00;99004.09;5072715;28;20226;-68
2022/01/20 11:22:36;;;;;;;7.23;4.50;;;;;;;4.70;100.00;98991.66;5072564;28;20234;-68
2022/01/20 11:25:05;;;;;;;13.23;4.90;;;;;;;4.66;100.00;98988.28;5072281;28;20240;-68
2022/01/20 11:27:37;;;;;;;11.33;4.80;;;;;;;4.71;100.00;98983.75;5061273;28;20221;-68
2022/01/20 11:30:16;;;;;;;9.63;4.53;;;;;;;4.74;100.00;98980.16;5058225;28;20207;-68
2022/01/20 11:32:45;;;;;;;9.00;4.30;;;;;;;4.84;100.00;98985.03;5069293;28;20591;-68
2022/01/20 11:35:13;;;;;;;8.17;4.30;;;;;;;5.14;100.00;98978.78;5069445;28;20622;-69
2022/01/20 11:37:42;;;;;;;7.90;3.90;;;;;;;5.34;100.00;98984.22;5072161;28;20662;-69
2022/01/20 11:40:16;;;;;;;7.37;3.90;;;;;;;5.37;98.17;98984.09;5072119;28;20208;-68
2022/01/20 11:42:55;;;;;;;7.00;3.93;;;;;;;5.47;97.96;98984.63;5072253;28;20218;-68
2022/01/20 11:45:25;;;;;;;8.53;3.87;;;;;;;5.61;96.09;98980.59;5058841;28;20221;-68
2022/01/20 11:47:52;;;;;;;5.23;3.40;;;;;;;5.73;95.12;98977.53;5071675;28;20698;-68
2022/01/20 11:50:20;;;;;;;5.37;3.40;;;;;;;5.86;92.77;98962.25;5071767;28;20216;-69
2022/01/20 11:52:47;;;;;;;6.60;3.30;;;;;;;5.88;91.98;98965.66;5071645;28;20690;-68
2022/01/20 11:55:16;;;;;;;8.63;3.40;;;;;;;5.95;91.89;98968.00;5070279;28;20217;-68
2022/01/20 11:57:43;;;;;;;5.43;3.10;;;;;;;6.03;91.66;98965.94;5072056;28;20214;-68
2022/01/20 12:00:21;;;;;;;6.40;3.07;;;;;;;5.97;88.93;98960.91;5071906;28;20223;-68
2022/01/20 12:02:49;;;;;;;6.13;2.77;;;;;;;5.84;89.76;98951.81;5069697;28;20239;-68
2022/01/20 12:05:26;;;;;;;6.83;2.97;;;;;;;5.45;90.03;98987.28;5069034;28;20220;-68
2022/01/20 12:07:53;;;;;;;2.03;1.23;;;;;;;4.87;93.75;99003.28;5071055;28;20244;-69
2022/01/20 12:10:25;;;;;;;2.63;1.10;;;;;;;3.23;100.00;99006.50;5070866;28;20215;-66
2022/01/20 12:12:53;;;;;;;1.10;1.00;;;;;;;2.24;100.00;99015.06;5070325;28;20220;-63
2022/01/20 12:15:22;;;;;;;1.60;1.20;;;;;;;1.66;100.00;99030.19;5058147;28;20447;-67
2022/01/20 12:17:51;;;;;;;2.83;1.33;;;;;;;1.25;100.00;99009.31;5062631;28;20211;-69
2022/01/20 12:20:18;;;;;;;4.50;1.60;;;;;;;1.12;100.00;99013.00;5066188;28;20222;-64
2022/01/20 12:22:46;;;;;;;6.10;1.80;;;;;;;1.09;100.00;99013.06;5069159;28;20235;-62